Overview Statistics Trail Chart Weather Telemetry Raw packets
 

This is the latest recevied weather packets stored in our database for station/object DL2GPS-3. If no packets are shown the sender has not sent any weather packets the latest 10 day(s).

<< 44 45 46 47 48 49 50 >>
Time Temp. Humidity Pressure Rain* Wind** Luminosity Snow
1788020039 20° C 63% 1019.2 hPa - - - -
1788019785 20° C 64% 1019.2 hPa - - - -
1788019181 19.44° C 64% 1019.3 hPa - - - -
1788018575 19.44° C 65% 1019.2 hPa - - - -
1788017970 19.44° C 65% 1019.4 hPa - - - -
1788017365 20° C 61% 1019.4 hPa - - - -
1788016760 20° C 62% 1019.4 hPa - - - -
1788016154 20° C 61% 1019.4 hPa - - - -
1788015551 20° C 61% 1019.5 hPa - - - -
1788014945 20.56° C 59% 1019.4 hPa - - - -
1788014340 21.11° C 57% 1019.4 hPa - - - -
1788013734 22.22° C 53% 1019.5 hPa - - - -
1788013129 22.78° C 51% 1019.4 hPa - - - -
1788011922 22.78° C 52% 1019.6 hPa - - - -
1788011317 21.11° C 55% 1019.7 hPa - - - -
1788010710 20.56° C 57% 1019.8 hPa - - - -
1788010105 20.56° C 57% 1019.8 hPa - - - -
1788009500 20.56° C 55% 1019.8 hPa - - - -
1788008894 21.67° C 54% 1019.8 hPa - - - -
1788008290 22.22° C 53% 1019.7 hPa - - - -
1788007686 21.67° C 52% 1019.7 hPa - - - -
1788007081 21.67° C 53% 1019.8 hPa - - - -
1788006487 21.67° C 53% 1019.8 hPa - - - -
1788005870 22.22° C 52% 1019.8 hPa - - - -
1788005265 22.22° C 53% 1019.9 hPa - - - -

* Rain since midnight (hover to see other rain measurements)
** Current wind speed in m/s (hover to see current wind gust speed)